Time;durP1;ratioP1;P1;durP2;ratioP2;P2;SDS_P1;SDS_P2;PMS_P1;PMS_P2;Temp;Humidity;BMP_temperature;BMP_pressure;BME280_temperature;BME280_humidity;BME280_pressure;Samples;Min_cycle;Max_cycle;Signal;HPM_P1;HPM_P2
2021/12/03 00:00:23;;;;;;;20.70;13.47;;;;;;;;;;5012852;28;20040;-69
2021/12/03 00:02:48;;;;;;;25.63;13.57;;;;;;;;;;5012977;28;20042;-71
2021/12/03 00:05:14;;;;;;;26.60;14.27;;;;;;;;;;5024994;28;20453;-70
2021/12/03 00:07:41;;;;;;;23.57;14.17;;;;;;;;;;5014786;28;20029;-69
2021/12/03 00:10:07;;;;;;;26.60;13.80;;;;;;;;;;5033124;28;20517;-69
2021/12/03 00:12:32;;;;;;;22.73;14.60;;;;;;;;;;5033202;28;20060;-69
2021/12/03 00:14:57;;;;;;;27.93;14.73;;;;;;;;;;5036440;28;20026;-69
2021/12/03 00:17:23;;;;;;;32.87;15.60;;;;;;;;;;5036195;28;20044;-69
2021/12/03 00:19:49;;;;;;;24.30;14.87;;;;;;;;;;5036744;28;20151;-69
2021/12/03 00:22:14;;;;;;;24.27;15.50;;;;;;;;;;5037250;28;20031;-70
2021/12/03 00:24:39;;;;;;;37.50;15.43;;;;;;;;;;5035337;28;20120;-70
2021/12/03 00:27:05;;;;;;;25.27;15.87;;;;;;;;;;5036523;28;20033;-69
2021/12/03 00:29:30;;;;;;;25.00;15.70;;;;;;;;;;5036182;28;20508;-70
2021/12/03 00:31:55;;;;;;;30.23;16.67;;;;;;;;;;5036259;28;20040;-69
2021/12/03 00:34:21;;;;;;;31.07;16.83;;;;;;;;;;5036718;28;20029;-70
2021/12/03 00:36:46;;;;;;;35.43;16.87;;;;;;;;;;5035836;28;20048;-70
2021/12/03 00:39:11;;;;;;;26.27;16.10;;;;;;;;;;5035849;28;20041;-69
2021/12/03 00:41:45;;;;;;;35.47;16.53;;;;;;;;;;5036194;28;20468;-70
2021/12/03 00:44:10;;;;;;;42.10;17.07;;;;;;;;;;5034748;28;20026;-69
2021/12/03 00:46:35;;;;;;;31.80;17.83;;;;;;;;;;5036692;28;20453;-69
2021/12/03 00:49:02;;;;;;;32.03;18.07;;;;;;;;;;5018405;28;20060;-70
2021/12/03 00:51:28;;;;;;;27.20;16.47;;;;;;;;;;5035986;28;20041;-69
2021/12/03 00:53:53;;;;;;;27.70;15.70;;;;;;;;;;5035928;28;20037;-69
2021/12/03 00:56:18;;;;;;;29.93;16.23;;;;;;;;;;5035666;28;20043;-69
2021/12/03 00:58:44;;;;;;;28.60;16.10;;;;;;;;;;5035731;28;20141;-70
2021/12/03 01:01:10;;;;;;;32.47;16.20;;;;;;;;;;5036253;28;20359;-69
2021/12/03 01:03:36;;;;;;;29.40;15.67;;;;;;;;;;5035574;28;20045;-70
2021/12/03 01:06:02;;;;;;;26.40;15.87;;;;;;;;;;5035298;28;20116;-69
2021/12/03 01:08:27;;;;;;;31.93;17.37;;;;;;;;;;5035520;28;20053;-70
2021/12/03 01:10:52;;;;;;;27.67;15.93;;;;;;;;;;5035419;28;20021;-70
2021/12/03 01:13:18;;;;;;;27.02;15.98;;;;;;;;;;5035806;28;20064;-70
2021/12/03 01:15:44;;;;;;;26.00;15.67;;;;;;;;;;5035397;28;20057;-69
2021/12/03 01:18:10;;;;;;;25.47;15.13;;;;;;;;;;5017502;28;20524;-68
2021/12/03 01:20:36;;;;;;;30.20;15.60;;;;;;;;;;5029647;28;20033;-69
2021/12/03 01:23:01;;;;;;;22.43;15.37;;;;;;;;;;5035138;28;20112;-69
2021/12/03 01:25:27;;;;;;;28.03;15.60;;;;;;;;;;5035042;28;20076;-70
2021/12/03 01:27:53;;;;;;;28.00;15.70;;;;;;;;;;5035301;28;20040;-69
2021/12/03 01:30:19;;;;;;;25.60;13.73;;;;;;;;;;5035469;28;20021;-69
2021/12/03 01:32:45;;;;;;;26.30;13.93;;;;;;;;;;5035019;28;20033;-69
2021/12/03 01:35:11;;;;;;;26.67;14.38;;;;;;;;;;5034777;28;20608;-70
2021/12/03 01:37:36;;;;;;;27.30;14.33;;;;;;;;;;5034859;28;20052;-70
2021/12/03 01:40:03;;;;;;;24.67;13.93;;;;;;;;;;5032696;28;20037;-68
2021/12/03 01:42:29;;;;;;;28.27;14.10;;;;;;;;;;5015123;28;20034;-70
2021/12/03 01:44:54;;;;;;;23.92;12.75;;;;;;;;;;5015064;28;20604;-69
2021/12/03 01:47:19;;;;;;;20.48;13.45;;;;;;;;;;5015053;28;20038;-70
2021/12/03 01:49:45;;;;;;;19.13;13.30;;;;;;;;;;5014665;28;20034;-70
2021/12/03 01:52:10;;;;;;;29.17;13.20;;;;;;;;;;5028845;28;20015;-69
2021/12/03 01:54:35;;;;;;;19.63;13.80;;;;;;;;;;5034511;28;20088;-70
2021/12/03 01:57:02;;;;;;;24.53;13.47;;;;;;;;;;5034664;28;20048;-70
2021/12/03 01:59:27;;;;;;;24.23;13.17;;;;;;;;;;5034807;28;20494;-69
2021/12/03 02:01:53;;;;;;;21.67;13.83;;;;;;;;;;5034379;28;20044;-69
2021/12/03 02:04:18;;;;;;;22.13;13.33;;;;;;;;;;5034853;28;20394;-69
2021/12/03 02:06:43;;;;;;;27.80;13.70;;;;;;;;;;5034228;28;20061;-69
2021/12/03 02:09:08;;;;;;;21.70;12.37;;;;;;;;;;5034696;28;20037;-68
2021/12/03 02:11:34;;;;;;;28.07;14.37;;;;;;;;;;5034450;28;20034;-69
2021/12/03 02:13:59;;;;;;;23.80;14.83;;;;;;;;;;5034256;28;20390;-70
2021/12/03 02:16:24;;;;;;;22.45;14.05;;;;;;;;;;5027660;28;20132;-70
2021/12/03 02:18:50;;;;;;;24.23;14.53;;;;;;;;;;5034243;28;20061;-69
2021/12/03 02:21:16;;;;;;;24.15;15.13;;;;;;;;;;5034468;28;20030;-69
2021/12/03 02:23:42;;;;;;;34.13;16.97;;;;;;;;;;5034261;28;20116;-69
2021/12/03 02:26:07;;;;;;;28.17;17.15;;;;;;;;;;5033928;28;20030;-68
2021/12/03 02:28:34;;;;;;;29.65;17.98;;;;;;;;;;5034355;28;20039;-70
2021/12/03 02:30:59;;;;;;;24.48;15.88;;;;;;;;;;5016154;28;20042;-70
2021/12/03 02:33:25;;;;;;;31.55;18.13;;;;;;;;;;5034062;28;20405;-69
2021/12/03 02:35:50;;;;;;;26.77;17.00;;;;;;;;;;5014927;28;20042;-69
2021/12/03 02:38:18;;;;;;;27.33;17.90;;;;;;;;;;5032926;28;20033;-69
2021/12/03 02:40:46;;;;;;;26.90;15.87;;;;;;;;;;5033713;28;20378;-69
2021/12/03 02:43:11;;;;;;;28.08;15.57;;;;;;;;;;5034230;28;20405;-68
2021/12/03 02:45:36;;;;;;;24.95;15.02;;;;;;;;;;5033537;28;20037;-69
2021/12/03 02:48:04;;;;;;;22.95;14.52;;;;;;;;;;5033573;28;20117;-69
2021/12/03 02:50:29;;;;;;;23.35;15.00;;;;;;;;;;5033539;28;20030;-70
2021/12/03 02:52:55;;;;;;;26.58;14.68;;;;;;;;;;5014052;28;20025;-69
2021/12/03 02:55:21;;;;;;;20.93;13.33;;;;;;;;;;5013901;28;20036;-68
2021/12/03 02:57:46;;;;;;;21.17;14.10;;;;;;;;;;5014130;28;20041;-70
2021/12/03 03:00:14;;;;;;;28.10;15.03;;;;;;;;;;5013636;28;20406;-70
2021/12/03 03:02:40;;;;;;;22.02;13.93;;;;;;;;;;5013674;28;20050;-69
2021/12/03 03:05:06;;;;;;;27.10;15.02;;;;;;;;;;5024296;28;20034;-70
2021/12/03 03:07:31;;;;;;;23.50;14.68;;;;;;;;;;5033630;28;20453;-70
2021/12/03 03:09:57;;;;;;;24.83;14.65;;;;;;;;;;5033236;28;20381;-70
2021/12/03 03:12:22;;;;;;;20.58;14.57;;;;;;;;;;5033182;28;20065;-68
2021/12/03 03:14:53;;;;;;;17.43;13.27;;;;;;;;;;5032969;28;20033;-68
2021/12/03 03:17:18;;;;;;;22.75;14.23;;;;;;;;;;5032924;28;20382;-69
2021/12/03 03:19:43;;;;;;;22.55;15.32;;;;;;;;;;5033208;28;20120;-69
2021/12/03 03:22:08;;;;;;;25.58;14.77;;;;;;;;;;5033865;28;20038;-69
2021/12/03 03:24:34;;;;;;;20.87;14.67;;;;;;;;;;5033140;28;20390;-71
2021/12/03 03:26:59;;;;;;;24.10;14.43;;;;;;;;;;5033068;28;20490;-70
2021/12/03 03:29:25;;;;;;;28.27;14.07;;;;;;;;;;5033242;28;20036;-69
2021/12/03 03:31:51;;;;;;;22.23;13.63;;;;;;;;;;5032944;28;20018;-71
2021/12/03 03:34:16;;;;;;;24.58;14.85;;;;;;;;;;4998162;28;20398;-69
2021/12/03 03:36:42;;;;;;;22.47;14.97;;;;;;;;;;5013087;28;20045;-69
2021/12/03 03:39:08;;;;;;;26.38;14.52;;;;;;;;;;5013173;28;20037;-69
2021/12/03 03:41:34;;;;;;;21.13;14.35;;;;;;;;;;5012942;28;20025;-71
2021/12/03 03:44:00;;;;;;;23.85;14.55;;;;;;;;;;5013021;28;20116;-69
2021/12/03 03:46:25;;;;;;;29.17;15.30;;;;;;;;;;4995713;28;20037;-69
2021/12/03 03:48:50;;;;;;;21.80;14.15;;;;;;;;;;5012741;28;20033;-68
2021/12/03 03:51:16;;;;;;;23.77;14.90;;;;;;;;;;5012852;28;20056;-69
2021/12/03 03:53:41;;;;;;;23.98;15.40;;;;;;;;;;5013047;28;20041;-69
2021/12/03 03:56:07;;;;;;;23.77;15.30;;;;;;;;;;5012653;28;20168;-68
2021/12/03 03:58:32;;;;;;;28.40;15.57;;;;;;;;;;5013707;28;20022;-70
2021/12/03 04:00:58;;;;;;;32.10;15.88;;;;;;;;;;5012778;28;20502;-69
2021/12/03 04:03:23;;;;;;;19.73;14.20;;;;;;;;;;5012885;28;20041;-69
2021/12/03 04:05:48;;;;;;;29.25;14.88;;;;;;;;;;5029527;28;20037;-70
2021/12/03 04:08:13;;;;;;;25.50;14.67;;;;;;;;;;5032652;28;20036;-68
2021/12/03 04:10:39;;;;;;;26.27;16.30;;;;;;;;;;5032551;28;20033;-70
2021/12/03 04:13:04;;;;;;;30.43;15.63;;;;;;;;;;5033567;28;20028;-70
2021/12/03 04:15:30;;;;;;;23.73;16.30;;;;;;;;;;5032616;28;20110;-70
2021/12/03 04:17:55;;;;;;;25.42;15.57;;;;;;;;;;5032168;28;20401;-69
2021/12/03 04:20:21;;;;;;;29.85;15.07;;;;;;;;;;5032734;28;20037;-70
2021/12/03 04:22:46;;;;;;;25.20;16.77;;;;;;;;;;5032559;28;20039;-69
2021/12/03 04:25:13;;;;;;;36.00;15.82;;;;;;;;;;5032885;28;20108;-70
2021/12/03 04:27:39;;;;;;;23.75;16.80;;;;;;;;;;5032308;28;20037;-69
2021/12/03 04:30:06;;;;;;;28.33;16.67;;;;;;;;;;5032445;28;20100;-70
2021/12/03 04:32:31;;;;;;;24.98;15.63;;;;;;;;;;5030062;28;20028;-70
2021/12/03 04:34:56;;;;;;;33.80;16.23;;;;;;;;;;5012337;28;20566;-70
2021/12/03 04:37:22;;;;;;;35.28;16.40;;;;;;;;;;5012898;28;20112;-70
2021/12/03 04:39:47;;;;;;;22.13;14.35;;;;;;;;;;5012318;28;20037;-70
2021/12/03 04:42:12;;;;;;;31.17;16.15;;;;;;;;;;5012599;28;20536;-70
2021/12/03 04:44:38;;;;;;;28.97;15.30;;;;;;;;;;5012491;28;20057;-70
2021/12/03 04:47:03;;;;;;;23.07;13.63;;;;;;;;;;5012789;28;20100;-70
2021/12/03 04:49:30;;;;;;;23.58;13.75;;;;;;;;;;5013270;28;20026;-69
2021/12/03 04:51:55;;;;;;;26.43;12.73;;;;;;;;;;5024087;28;20351;-69
2021/12/03 04:54:21;;;;;;;27.73;12.70;;;;;;;;;;5032100;28;20045;-69
2021/12/03 04:56:46;;;;;;;23.13;12.05;;;;;;;;;;5014411;28;20030;-69
2021/12/03 04:59:11;;;;;;;22.53;11.30;;;;;;;;;;5032199;28;20029;-69
2021/12/03 05:01:38;;;;;;;18.30;10.03;;;;;;;;;;5033828;28;20014;-69
2021/12/03 05:04:03;;;;;;;25.50;12.35;;;;;;;;;;5035321;28;20029;-69
2021/12/03 05:06:31;;;;;;;21.38;11.30;;;;;;;;;;5035510;28;20551;-69
2021/12/03 05:08:56;;;;;;;20.77;10.13;;;;;;;;;;5035540;28;20037;-69
2021/12/03 05:11:22;;;;;;;28.90;11.80;;;;;;;;;;5035164;28;20021;-70
2021/12/03 05:13:47;;;;;;;21.85;10.82;;;;;;;;;;5035130;28;20045;-70
2021/12/03 05:16:12;;;;;;;29.90;12.13;;;;;;;;;;5035687;28;20029;-68
2021/12/03 05:18:37;;;;;;;25.33;12.70;;;;;;;;;;5035646;28;20144;-71
2021/12/03 05:21:03;;;;;;;23.52;12.18;;;;;;;;;;5035687;28;20030;-68
2021/12/03 05:23:29;;;;;;;35.65;14.55;;;;;;;;;;5035540;28;20021;-70
2021/12/03 05:25:55;;;;;;;28.23;12.35;;;;;;;;;;5035341;28;20068;-69
2021/12/03 05:28:20;;;;;;;24.23;13.30;;;;;;;;;;5035867;28;20034;-69
2021/12/03 05:30:45;;;;;;;26.83;11.90;;;;;;;;;;5035470;28;20107;-70
2021/12/03 05:33:11;;;;;;;17.98;11.68;;;;;;;;;;5035128;28;20036;-68
2021/12/03 05:35:36;;;;;;;22.63;12.13;;;;;;;;;;5017606;28;20084;-69
2021/12/03 05:38:03;;;;;;;18.90;11.05;;;;;;;;;;5035017;28;20535;-68
2021/12/03 05:40:28;;;;;;;27.58;12.55;;;;;;;;;;5035503;28;20030;-68
2021/12/03 05:42:54;;;;;;;31.67;11.48;;;;;;;;;;5017062;28;20125;-70
2021/12/03 05:45:21;;;;;;;27.23;10.77;;;;;;;;;;5035547;28;20042;-68
2021/12/03 05:47:46;;;;;;;21.92;11.45;;;;;;;;;;5034980;28;20057;-68
2021/12/03 05:50:12;;;;;;;23.45;10.50;;;;;;;;;;5035168;28;20058;-70
2021/12/03 05:52:37;;;;;;;19.02;10.63;;;;;;;;;;5034891;28;20049;-68
2021/12/03 05:55:03;;;;;;;21.95;9.95;;;;;;;;;;5035266;28;20029;-69
2021/12/03 05:57:28;;;;;;;22.38;10.65;;;;;;;;;;5034804;28;20029;-69
2021/12/03 05:59:54;;;;;;;29.85;12.07;;;;;;;;;;5034875;28;20045;-69
2021/12/03 06:02:20;;;;;;;20.80;10.60;;;;;;;;;;5034510;28;20037;-69
2021/12/03 06:04:46;;;;;;;25.98;11.85;;;;;;;;;;5033948;28;20029;-70
2021/12/03 06:07:12;;;;;;;23.55;10.68;;;;;;;;;;5015244;28;20121;-69
2021/12/03 06:09:37;;;;;;;31.10;12.65;;;;;;;;;;5014891;28;20041;-68
2021/12/03 06:12:02;;;;;;;26.55;11.15;;;;;;;;;;4997767;28;20041;-68
2021/12/03 06:14:29;;;;;;;19.98;11.20;;;;;;;;;;5014816;28;20026;-70
2021/12/03 06:16:54;;;;;;;20.60;12.43;;;;;;;;;;5014735;28;20065;-69
2021/12/03 06:19:19;;;;;;;22.55;11.85;;;;;;;;;;5015535;28;20049;-68
2021/12/03 06:21:45;;;;;;;20.83;11.43;;;;;;;;;;5014574;28;20092;-68
2021/12/03 06:24:10;;;;;;;20.75;13.10;;;;;;;;;;5014735;28;20034;-69
2021/12/03 06:26:35;;;;;;;21.63;12.10;;;;;;;;;;5022391;28;20029;-70
2021/12/03 06:29:00;;;;;;;23.73;12.40;;;;;;;;;;5034135;28;20064;-68
2021/12/03 06:31:25;;;;;;;23.95;12.27;;;;;;;;;;5016705;28;20052;-69
2021/12/03 06:33:51;;;;;;;25.33;13.35;;;;;;;;;;5034024;28;20422;-69
2021/12/03 06:36:16;;;;;;;17.30;11.65;;;;;;;;;;5032614;28;20080;-68
2021/12/03 06:38:42;;;;;;;19.38;8.85;;;;;;;;;;5032699;28;20033;-68
2021/12/03 06:41:07;;;;;;;26.30;11.65;;;;;;;;;;5016056;28;20025;-69
2021/12/03 06:43:33;;;;;;;27.13;13.52;;;;;;;;;;5034426;28;20398;-70
2021/12/03 06:45:58;;;;;;;20.55;11.77;;;;;;;;;;5034677;28;20017;-68
2021/12/03 06:48:23;;;;;;;24.45;13.00;;;;;;;;;;5025785;28;20040;-69
2021/12/03 06:50:51;;;;;;;25.33;12.05;;;;;;;;;;5031696;28;20061;-70
2021/12/03 06:53:17;;;;;;;23.98;13.77;;;;;;;;;;5031262;28;20029;-70
2021/12/03 06:55:47;;;;;;;26.63;13.57;;;;;;;;;;5032841;28;20482;-70
2021/12/03 06:58:17;;;;;;;28.23;13.63;;;;;;;;;;5029182;28;20083;-70
2021/12/03 07:00:43;;;;;;;23.40;14.85;;;;;;;;;;5019863;28;20037;-70
2021/12/03 07:03:08;;;;;;;24.50;15.80;;;;;;;;;;5023915;28;20026;-68
2021/12/03 07:05:34;;;;;;;32.47;14.90;;;;;;;;;;5005614;28;20034;-68
2021/12/03 07:07:59;;;;;;;23.90;14.68;;;;;;;;;;5020809;28;20054;-70
2021/12/03 07:10:24;;;;;;;26.95;15.40;;;;;;;;;;5025743;28;20474;-70
2021/12/03 07:12:49;;;;;;;29.63;16.83;;;;;;;;;;5021933;28;20565;-69
2021/12/03 07:15:15;;;;;;;33.65;18.05;;;;;;;;;;5020556;28;20061;-69
2021/12/03 07:17:40;;;;;;;37.53;17.67;;;;;;;;;;5015021;28;20045;-70
2021/12/03 07:20:06;;;;;;;34.83;18.38;;;;;;;;;;5013061;28;20030;-69
2021/12/03 07:22:33;;;;;;;32.85;17.30;;;;;;;;;;5013026;28;20030;-69
2021/12/03 07:24:58;;;;;;;36.47;18.45;;;;;;;;;;4995728;28;20049;-70
2021/12/03 07:27:23;;;;;;;33.17;19.17;;;;;;;;;;5013232;28;20394;-70
2021/12/03 07:29:48;;;;;;;37.85;19.65;;;;;;;;;;5013014;28;20129;-69
2021/12/03 07:32:14;;;;;;;40.33;19.83;;;;;;;;;;5021101;28;20091;-69
2021/12/03 07:34:40;;;;;;;33.85;19.10;;;;;;;;;;5032902;28;20036;-69
2021/12/03 07:37:05;;;;;;;41.67;18.30;;;;;;;;;;5032742;28;20128;-70
2021/12/03 07:39:30;;;;;;;30.25;18.65;;;;;;;;;;5032762;28;20037;-69
2021/12/03 07:41:55;;;;;;;42.72;20.55;;;;;;;;;;5026723;28;20034;-69
2021/12/03 07:44:20;;;;;;;31.83;17.65;;;;;;;;;;5005999;28;20490;-69
2021/12/03 07:46:46;;;;;;;39.60;17.58;;;;;;;;;;5032719;28;20378;-69
2021/12/03 07:49:11;;;;;;;36.65;18.42;;;;;;;;;;5025284;28;20037;-71
2021/12/03 07:51:36;;;;;;;29.30;18.73;;;;;;;;;;5015337;28;20034;-70
2021/12/03 07:54:01;;;;;;;31.70;18.95;;;;;;;;;;5013355;28;20038;-71
2021/12/03 07:56:27;;;;;;;38.38;19.80;;;;;;;;;;5015255;28;20030;-71
2021/12/03 07:58:52;;;;;;;30.42;17.65;;;;;;;;;;5020065;28;20033;-72
2021/12/03 08:01:18;;;;;;;26.65;17.08;;;;;;;;;;5023941;28;20041;-70
2021/12/03 08:03:44;;;;;;;38.05;18.75;;;;;;;;;;5023928;28;20034;-70
2021/12/03 08:06:09;;;;;;;34.92;18.45;;;;;;;;;;5032267;28;20029;-70
2021/12/03 08:08:37;;;;;;;40.42;18.40;;;;;;;;;;5032508;28;20041;-70
2021/12/03 08:11:03;;;;;;;36.33;18.33;;;;;;;;;;5014530;28;20037;-71
2021/12/03 08:13:29;;;;;;;36.17;16.55;;;;;;;;;;5032721;28;20029;-70
2021/12/03 08:15:54;;;;;;;34.13;15.55;;;;;;;;;;5032481;28;20041;-69
2021/12/03 08:18:20;;;;;;;29.75;15.93;;;;;;;;;;5032432;28;20049;-70
2021/12/03 08:20:45;;;;;;;24.05;14.23;;;;;;;;;;5032654;28;20160;-70
2021/12/03 08:23:12;;;;;;;26.10;12.10;;;;;;;;;;5032636;28;20049;-69
2021/12/03 08:25:37;;;;;;;30.08;13.48;;;;;;;;;;5029173;28;20037;-70
2021/12/03 08:28:02;;;;;;;30.27;13.55;;;;;;;;;;5024589;28;20037;-71
2021/12/03 08:30:30;;;;;;;28.10;12.30;;;;;;;;;;5032587;28;20061;-70
2021/12/03 08:32:59;;;;;;;29.27;12.80;;;;;;;;;;5025760;28;20049;-71
2021/12/03 08:35:25;;;;;;;29.77;11.25;;;;;;;;;;5024462;28;20030;-71
2021/12/03 08:37:51;;;;;;;28.73;11.02;;;;;;;;;;5025883;28;20046;-71
2021/12/03 08:40:17;;;;;;;25.70;9.73;;;;;;;;;;5030711;28;20028;-69
2021/12/03 08:42:42;;;;;;;26.98;9.48;;;;;;;;;;5035929;28;20038;-70
2021/12/03 08:45:08;;;;;;;40.60;10.25;;;;;;;;;;5035831;28;20037;-71
2021/12/03 08:47:35;;;;;;;24.75;10.32;;;;;;;;;;5035970;28;20025;-69
2021/12/03 08:50:04;;;;;;;26.67;9.60;;;;;;;;;;5034407;28;20047;-69
2021/12/03 08:55:00;;;;;;;26.52;8.70;;;;;;;;;;5028193;28;20033;-70
2021/12/03 08:57:27;;;;;;;20.85;8.75;;;;;;;;;;5035727;28;20470;-69
2021/12/03 08:59:56;;;;;;;29.40;11.23;;;;;;;;;;5035571;28;20494;-70
2021/12/03 09:02:22;;;;;;;22.75;9.45;;;;;;;;;;5032195;28;20032;-71
2021/12/03 09:04:48;;;;;;;22.35;8.32;;;;;;;;;;5014143;28;20061;-72
2021/12/03 09:07:14;;;;;;;32.05;8.80;;;;;;;;;;5014930;28;20500;-70
2021/12/03 09:09:39;;;;;;;29.13;8.57;;;;;;;;;;5033740;28;20030;-68
2021/12/03 09:12:04;;;;;;;30.13;8.20;;;;;;;;;;5034720;28;20115;-71
2021/12/03 09:19:56;;;;;;;30.98;7.00;;;;;;;;;;5034985;28;20091;-71
2021/12/03 09:24:59;;;;;;;18.42;7.18;;;;;;;;;;5034724;28;20068;-71
2021/12/03 09:27:25;;;;;;;16.10;6.57;;;;;;;;;;5034830;28;20053;-72
2021/12/03 09:29:53;;;;;;;24.48;7.82;;;;;;;;;;5034310;28;20125;-70
2021/12/03 09:32:23;;;;;;;19.95;6.38;;;;;;;;;;5031598;28;20033;-70
2021/12/03 09:34:49;;;;;;;16.13;7.05;;;;;;;;;;5023122;28;20037;-69
2021/12/03 09:37:15;;;;;;;26.50;7.65;;;;;;;;;;5031335;28;20046;-69
2021/12/03 09:39:42;;;;;;;18.10;7.38;;;;;;;;;;5029739;28;20430;-71
2021/12/03 09:42:08;;;;;;;29.33;7.80;;;;;;;;;;5031254;28;20021;-70
2021/12/03 09:44:37;;;;;;;20.80;6.30;;;;;;;;;;5028732;28;20125;-70
2021/12/03 09:47:04;;;;;;;27.23;7.03;;;;;;;;;;5030199;28;20056;-71
2021/12/03 09:49:33;;;;;;;28.75;6.50;;;;;;;;;;5032128;28;20029;-71
2021/12/03 09:54:40;;;;;;;30.95;7.05;;;;;;;;;;5032017;28;20030;-71
2021/12/03 09:57:09;;;;;;;21.50;6.15;;;;;;;;;;5034127;28;20076;-71
2021/12/03 10:02:39;;;;;;;20.58;6.88;;;;;;;;;;5033827;28;20040;-71
2021/12/03 10:19:17;;;;;;;22.00;6.60;;;;;;;;;;4953328;29;20051;-70
2021/12/03 10:24:33;;;;;;;30.77;7.25;;;;;;;;;;4953340;29;20047;-70
2021/12/03 10:30:35;;;;;;;22.70;6.20;;;;;;;;;;4934980;29;20066;-70
2021/12/03 10:40:57;;;;;;;24.42;5.85;;;;;;;;;;4934703;29;20044;-71
2021/12/03 10:46:31;;;;;;;11.38;5.18;;;;;;;;;;4933324;29;20123;-71
2021/12/03 10:51:55;;;;;;;16.58;4.22;;;;;;;;;;4955756;28;20142;-70
2021/12/03 11:08:22;;;;;;;11.82;3.80;;;;;;;;;;4991392;28;20084;-71
2021/12/03 12:52:49;;;;;;;16.65;5.97;;;;;;;;;;5027728;28;20022;-70
2021/12/03 12:57:36;;;;;;;13.77;4.97;;;;;;;;;;5013132;28;20100;-70
2021/12/03 13:26:49;;;;;;;7.38;3.47;;;;;;;;;;5012452;28;20521;-70
2021/12/03 14:37:57;;;;;;;11.18;4.53;;;;;;;;;;5025788;28;20096;-70
2021/12/03 14:51:12;;;;;;;11.70;4.10;;;;;;;;;;5027072;28;20414;-69
2021/12/03 14:53:59;;;;;;;12.73;5.05;;;;;;;;;;5037847;28;20682;-71
2021/12/03 14:56:27;;;;;;;10.05;4.15;;;;;;;;;;5027640;28;20079;-71
2021/12/03 14:59:22;;;;;;;12.82;4.90;;;;;;;;;;5026945;28;20041;-69
2021/12/03 15:01:56;;;;;;;10.18;4.30;;;;;;;;;;5027291;28;20032;-70
2021/12/03 15:05:11;;;;;;;11.70;5.35;;;;;;;;;;5027653;28;20111;-70
2021/12/03 15:07:19;;;;;;;15.05;4.53;;;;;;;;;;5016946;28;20128;-70
2021/12/03 15:09:47;;;;;;;10.00;4.53;;;;;;;;;;5026352;28;20044;-76
2021/12/03 15:32:53;;;;;;;7.28;4.90;;;;;;;;;;5018809;28;20038;-66
2021/12/03 15:38:09;;;;;;;6.90;4.55;;;;;;;;;;5024925;28;20413;-67
2021/12/03 15:57:01;;;;;;;10.00;6.00;;;;;;;;;;4921396;29;20480;-68
2021/12/03 16:13:14;;;;;;;6.97;5.20;;;;;;;;;;4942252;29;20042;-69
2021/12/03 16:16:19;;;;;;;6.88;5.57;;;;;;;;;;4928826;29;20046;-70
2021/12/03 16:21:39;;;;;;;9.20;7.13;;;;;;;;;;4934972;29;20134;-69
2021/12/03 16:27:50;;;;;;;;;;;;;;;;;;4956300;28;20031;-68
2021/12/03 16:43:57;;;;;;;8.80;7.30;;;;;;;;;;4949212;29;20078;-67
2021/12/03 16:46:29;;;;;;;12.27;8.27;;;;;;;;;;4948718;29;20039;-67
2021/12/03 16:56:46;;;;;;;16.08;8.85;;;;;;;;;;4953676;28;20103;-67
2021/12/03 16:59:11;;;;;;;14.18;8.65;;;;;;;;;;4954617;28;20032;-68
2021/12/03 17:49:32;;;;;;;21.08;12.30;;;;;;;;;;4887641;29;20041;-68
2021/12/03 17:52:16;;;;;;;13.77;11.63;;;;;;;;;;4879843;29;20029;-71
2021/12/03 17:59:51;;;;;;;16.75;12.38;;;;;;;;;;4874326;29;20044;-71
2021/12/03 18:02:41;;;;;;;18.38;12.82;;;;;;;;;;4873362;29;20461;-69
2021/12/03 18:56:06;;;;;;;;;;;;;;;;;;4949820;28;20042;-67
2021/12/03 18:58:32;;;;;;;14.65;11.32;;;;;;;;;;4949233;29;19984;-67
2021/12/03 19:00:58;;;;;;;20.33;15.10;;;;;;;;;;4947422;29;20070;-67
2021/12/03 19:11:04;;;;;;;20.83;14.32;;;;;;;;;;4959493;28;20035;-67
2021/12/03 19:13:35;;;;;;;22.67;15.63;;;;;;;;;;4948374;28;20035;-66
2021/12/03 19:16:02;;;;;;;;;;;;;;;;;;4958298;28;20047;-66
2021/12/03 19:18:28;;;;;;;22.48;14.98;;;;;;;;;;4952897;28;20374;-67
2021/12/03 19:20:53;;;;;;;27.33;17.27;;;;;;;;;;4947905;29;20046;-66
2021/12/03 19:23:19;;;;;;;23.38;15.80;;;;;;;;;;4947601;29;20482;-67
2021/12/03 19:25:44;;;;;;;22.98;16.08;;;;;;;;;;4948240;29;20662;-69
2021/12/03 19:28:10;;;;;;;20.10;15.52;;;;;;;;;;4949496;29;20038;-68
2021/12/03 19:30:35;;;;;;;21.95;16.40;;;;;;;;;;4953007;28;20534;-67
2021/12/03 19:33:06;;;;;;;19.88;15.70;;;;;;;;;;4998970;28;20056;-68
2021/12/03 19:35:32;;;;;;;22.73;15.13;;;;;;;;;;5022226;28;20863;-69
2021/12/03 19:38:01;;;;;;;19.52;15.23;;;;;;;;;;5027700;28;20120;-67
2021/12/03 19:40:34;;;;;;;23.92;17.08;;;;;;;;;;5029610;28;20053;-68
2021/12/03 19:43:08;;;;;;;25.58;16.20;;;;;;;;;;5029259;28;20104;-68
2021/12/03 19:45:37;;;;;;;22.30;16.42;;;;;;;;;;5026363;28;20601;-67
2021/12/03 19:48:06;;;;;;;19.98;15.02;;;;;;;;;;5028880;28;20045;-77
2021/12/03 19:53:15;;;;;;;21.77;16.88;;;;;;;;;;5013296;28;20125;-67
2021/12/03 19:55:40;;;;;;;24.05;15.18;;;;;;;;;;5012446;28;20038;-68
2021/12/03 19:58:06;;;;;;;24.20;17.55;;;;;;;;;;5009834;28;20044;-66
2021/12/03 20:00:32;;;;;;;20.67;15.88;;;;;;;;;;5009342;28;20033;-67
2021/12/03 20:02:57;;;;;;;22.77;15.65;;;;;;;;;;5010107;28;20032;-70
2021/12/03 20:05:22;;;;;;;23.13;16.00;;;;;;;;;;5010563;28;20029;-70
2021/12/03 20:07:48;;;;;;;23.02;16.33;;;;;;;;;;5010250;28;20057;-69
2021/12/03 20:10:16;;;;;;;20.02;15.27;;;;;;;;;;5007373;28;20022;-70
2021/12/03 20:12:42;;;;;;;21.80;16.45;;;;;;;;;;5020798;28;20121;-70
2021/12/03 20:15:10;;;;;;;21.35;14.50;;;;;;;;;;5018577;28;20460;-69
2021/12/03 20:17:47;;;;;;;20.02;14.85;;;;;;;;;;5023935;28;20045;-69
2021/12/03 20:20:13;;;;;;;18.83;14.90;;;;;;;;;;5019586;28;20140;-70
2021/12/03 20:27:54;;;;;;;17.40;13.45;;;;;;;;;;5023752;28;20029;-70
2021/12/03 20:30:35;;;;;;;22.45;15.88;;;;;;;;;;5006135;28;20030;-69
2021/12/03 20:38:26;;;;;;;15.40;12.63;;;;;;;;;;5028694;28;20192;-70
2021/12/03 20:40:54;;;;;;;18.80;12.75;;;;;;;;;;5022448;28;20045;-69
2021/12/03 20:46:06;;;;;;;23.20;14.50;;;;;;;;;;5024490;28;20826;-69
2021/12/03 21:10:28;;;;;;;22.40;15.38;;;;;;;;;;4916620;29;20031;-69
2021/12/03 21:12:56;;;;;;;20.67;13.88;;;;;;;;;;4915751;29;20048;-69
2021/12/03 21:15:41;;;;;;;24.17;16.90;;;;;;;;;;4915883;29;20036;-71
2021/12/03 21:20:46;;;;;;;23.83;16.77;;;;;;;;;;4915680;29;20036;-70
2021/12/03 21:23:11;;;;;;;20.45;14.95;;;;;;;;;;4913750;29;20052;-69
2021/12/03 21:25:38;;;;;;;22.48;16.10;;;;;;;;;;4915985;29;20044;-68
2021/12/03 21:43:29;;;;;;;22.55;14.73;;;;;;;;;;5023046;28;20544;-68
2021/12/03 21:45:54;;;;;;;19.77;14.30;;;;;;;;;;5026052;28;20025;-69
2021/12/03 21:48:20;;;;;;;20.85;16.40;;;;;;;;;;5005635;28;20030;-70
2021/12/03 21:50:45;;;;;;;21.85;16.05;;;;;;;;;;5023052;28;20524;-69
2021/12/03 21:53:11;;;;;;;19.58;14.35;;;;;;;;;;5022701;28;20034;-69
2021/12/03 21:55:39;;;;;;;21.38;15.13;;;;;;;;;;5023691;28;20017;-71
2021/12/03 21:58:04;;;;;;;25.23;16.77;;;;;;;;;;5028337;28;20034;-69
2021/12/03 22:00:29;;;;;;;21.80;15.85;;;;;;;;;;5023189;28;20033;-71
2021/12/03 22:02:55;;;;;;;23.17;16.05;;;;;;;;;;5005253;28;20037;-70
2021/12/03 22:05:20;;;;;;;23.00;16.98;;;;;;;;;;5029100;28;20038;-70
2021/12/03 22:07:45;;;;;;;23.50;15.80;;;;;;;;;;5022301;28;20518;-69
2021/12/03 22:10:11;;;;;;;24.65;16.75;;;;;;;;;;5022737;28;20016;-70
2021/12/03 22:12:36;;;;;;;22.10;16.02;;;;;;;;;;5026003;28;20509;-70
2021/12/03 22:15:03;;;;;;;23.65;16.38;;;;;;;;;;5027005;28;20029;-69
2021/12/03 22:17:28;;;;;;;28.60;17.13;;;;;;;;;;5027563;28;20091;-69
2021/12/03 22:19:54;;;;;;;24.52;16.13;;;;;;;;;;5024946;28;20045;-69
2021/12/03 22:22:19;;;;;;;23.02;16.65;;;;;;;;;;5023034;28;20021;-70
2021/12/03 22:24:44;;;;;;;22.27;16.20;;;;;;;;;;5023286;28;20111;-71
2021/12/03 22:27:11;;;;;;;23.98;16.67;;;;;;;;;;5023917;28;20030;-70
2021/12/03 22:29:36;;;;;;;22.88;15.23;;;;;;;;;;5024337;28;20025;-70
2021/12/03 22:32:04;;;;;;;23.30;14.95;;;;;;;;;;5021197;28;20722;-69
2021/12/03 22:34:30;;;;;;;21.83;14.80;;;;;;;;;;5022759;28;20419;-69
2021/12/03 22:36:55;;;;;;;21.75;14.60;;;;;;;;;;5023049;28;20135;-70
2021/12/03 22:39:20;;;;;;;23.75;15.88;;;;;;;;;;5023567;28;20044;-70
2021/12/03 22:41:48;;;;;;;21.05;15.50;;;;;;;;;;5025585;28;20527;-68
2021/12/03 22:44:13;;;;;;;26.40;15.48;;;;;;;;;;5022671;28;20053;-69
2021/12/03 22:49:19;;;;;;;23.55;15.38;;;;;;;;;;5020896;28;20037;-70
2021/12/03 22:54:10;;;;;;;21.58;14.93;;;;;;;;;;5021879;28;20033;-69
2021/12/03 22:56:35;;;;;;;19.77;15.18;;;;;;;;;;5021773;28;20387;-70
2021/12/03 22:59:00;;;;;;;23.98;15.27;;;;;;;;;;5024109;28;20029;-69
2021/12/03 23:01:25;;;;;;;26.65;16.02;;;;;;;;;;5026092;28;20453;-70
2021/12/03 23:03:52;;;;;;;25.00;15.18;;;;;;;;;;5023906;28;20486;-70
2021/12/03 23:06:17;;;;;;;21.05;14.40;;;;;;;;;;5027467;28;20037;-69